Neva — MCNR — position and weather

sailwx.info

Track history (hours):
 
Tides and Currents Weather Stations Pressure Air Temp Water Temp Dewpoint Dewpoint Depression Visibility Wind Speed Wind Dir Waves Ship Positions

Neva

Last reported at 2017-Nov-20 00:31 UTC. Time now 2017-Nov-21 15:45 UTC.
Position N 35°03' E 139°43'.

Length 172 m; draft 7.4 m.

Type: Cargo ship. MMSI: 235012099.

Date/timePositionNaut miles runAvg speedWind from/ knotsBaromVisibWave heightAir tempDewpointWater temp
2017-Nov-20 00:31N 35°03' E 139°43'612.5
2017-Nov-20 00:01N 35°01' E 139°36'0 0.4
2017-Nov-19 23:31N 35°01' E 139°36'1 1.2
2017-Nov-19 23:00N 35°01' E 139°36'3 6.0
2017-Nov-19 22:31N 35°02' E 139°40'2 3.9
2017-Nov-19 22:01N 35°01' E 139°38'713.6
2017-Nov-19 21:30N 34°57' E 139°31'815.7
2017-Nov-19 21:00N 34°52' E 139°23'915.8
2017-Nov-19 20:25N 34°46' E 139°15'217 7.1
2017-Nov-18 13:58N 33°59' E 134°58'817.6
2017-Nov-18 13:30N 34°07' E 134°57'714.0
2017-Nov-18 13:00N 34°14' E 134°58'815.9
2017-Nov-18 12:30N 34°22' E 135°00'918.4
2017-Nov-18 12:00N 34°28' E 135°08'917.8
2017-Nov-18 11:31N 34°35' E 135°15'5 9.7
2017-Nov-18 11:00N 34°40' E 135°14'0 0.4
2017-Nov-18 10:30N 34°40' E 135°14'0 0.0
2017-Nov-18 10:00N 34°40' E 135°14'0 0.0
2017-Nov-18 09:24N 34°40' E 135°14'0 0.0
2017-Nov-18 08:54N 34°40' E 135°14'0 0.0
2017-Nov-18 08:30N 34°40' E 135°14'0 0.0
2017-Nov-18 07:54N 34°40' E 135°14'0 0.0
2017-Nov-18 07:30N 34°40' E 135°14'0 0.0
2017-Nov-18 07:00N 34°40' E 135°14'0 0.0
2017-Nov-18 06:30N 34°40' E 135°14'0 0.0
2017-Nov-18 06:00N 34°40' E 135°14'0 0.0
2017-Nov-18 05:30N 34°40' E 135°14'0 0.0
2017-Nov-18 05:00N 34°40' E 135°14'0 0.1
2017-Nov-18 04:30N 34°40' E 135°14'1 2.9
2017-Nov-18 04:00N 34°39' E 135°16'510.7
2017-Nov-18 03:30N 34°38' E 135°22'2 3.0
2017-Nov-18 02:58N 34°39' E 135°24'0 0.0
2017-Nov-18 02:28N 34°39' E 135°24'0 0.0
2017-Nov-18 01:58N 34°39' E 135°24'0 0.0
2017-Nov-18 01:28N 34°39' E 135°24'0 0.0
2017-Nov-18 00:58N 34°39' E 135°24'0 0.0
2017-Nov-18 00:22N 34°39' E 135°24'0 0.0
2017-Nov-17 23:40N 34°39' E 135°24'0 0.0
2017-Nov-17 23:28N 34°39' E 135°24'0 0.0
2017-Nov-17 22:58N 34°39' E 135°24'0 0.0
2017-Nov-17 22:28N 34°39' E 135°24'0 0.0
2017-Nov-17 21:58N 34°39' E 135°24'0 0.0
2017-Nov-17 21:28N 34°39' E 135°24'0 0.0
2017-Nov-17 20:58N 34°39' E 135°24'0 0.0
2017-Nov-17 20:28N 34°39' E 135°24'0 0.0
2017-Nov-17 19:58N 34°39' E 135°24'0 0.0
2017-Nov-17 19:22N 34°39' E 135°24'0 0.0
2017-Nov-17 18:58N 34°39' E 135°24'0 0.0
2017-Nov-17 18:22N 34°39' E 135°24'0 0.0
2017-Nov-17 17:52N 34°39' E 135°24'0 0.0
2017-Nov-17 17:28N 34°39' E 135°24'0 0.0
2017-Nov-17 16:58N 34°39' E 135°24'0 0.0
2017-Nov-17 16:22N 34°39' E 135°24'0 0.0
2017-Nov-17 15:58N 34°39' E 135°24'0 0.0
2017-Nov-17 15:28N 34°39' E 135°24'0 0.0
2017-Nov-17 14:58N 34°39' E 135°24'0 0.1
2017-Nov-17 14:30N 34°39' E 135°24'1 2.8
2017-Nov-17 14:00N 34°38' E 135°23'612.3
2017-Nov-17 13:31N 34°34' E 135°17'917.0
2017-Nov-17 13:00N 34°28' E 135°10'917.1
2017-Nov-17 12:30N 34°22' E 135°03'816.4
2017-Nov-17 12:00N 34°14' E 134°59'713.2
2017-Nov-17 11:31N 34°07' E 134°59'816.4
2017-Nov-17 11:00N 33°59' E 134°57'915.5
2017-Nov-17 10:24N 33°50' E 134°55'  
2017-Nov-15 00:28N 24°05' E 118°36'817.1
2017-Nov-15 00:00N 24°01' E 118°29'20017.1
2017-Nov-14 12:19N 22°17' E 115°23'617.5
2017-Nov-14 11:57N 22°15' E 115°16'817.3
2017-Nov-14 11:30N 22°12' E 115°08'917.2
2017-Nov-14 11:00N 22°11' E 114°59'817.1
2017-Nov-14 10:30N 22°09' E 114°50'917.1
2017-Nov-14 10:00N 22°08' E 114°41'816.9
2017-Nov-14 09:30N 22°07' E 114°32'917.1
2017-Nov-14 09:00N 22°07' E 114°23'916.5
2017-Nov-14 08:28N 22°08' E 114°13'714.0
2017-Nov-14 07:59N 22°13' E 114°09'611.3
2017-Nov-14 07:28N 22°18' E 114°06'3 0.3
2017-Nov-13 22:00N 22°21' E 114°07'15 0.8
2017-Nov-13 01:57N 22°28' E 113°53'0 0.0
2017-Nov-13 01:27N 22°28' E 113°53'0 0.0
2017-Nov-13 01:00N 22°28' E 113°53'0 0.1
2017-Nov-13 00:30N 22°28' E 113°52'0 0.1
2017-Nov-13 00:00N 22°28' E 113°53'0 0.1
2017-Nov-12 23:30N 22°28' E 113°52'0 0.0
2017-Nov-12 22:56N 22°28' E 113°52'0 0.0
2017-Nov-12 22:26N 22°28' E 113°52'0 0.0
2017-Nov-12 21:59N 22°28' E 113°52'0 0.0
2017-Nov-12 21:29N 22°28' E 113°52'0 0.0
2017-Nov-12 20:56N 22°28' E 113°52'0 0.1
2017-Nov-12 20:29N 22°28' E 113°53'0 0.0
2017-Nov-12 19:56N 22°28' E 113°53'0 0.0
2017-Nov-12 19:29N 22°28' E 113°53'0 0.0
2017-Nov-12 18:59N 22°28' E 113°53'0 0.0
2017-Nov-12 18:20N 22°28' E 113°53'0 0.0
2017-Nov-12 17:56N 22°28' E 113°53'0 0.0
2017-Nov-12 17:29N 22°28' E 113°53'1 3.0
2017-Nov-12 17:00N 22°27' E 113°53'4 8.5
2017-Nov-12 16:30N 22°23' E 113°54'612.6
2017-Nov-12 16:00N 22°21' E 114°01'710.9
2017-Nov-12 15:22N 22°17' E 114°06'512.7
2017-Nov-12 15:00N 22°13' E 114°10'4 7.1
2017-Nov-12 14:30N 22°10' E 114°12'5 8.9
2017-Nov-12 13:59N 22°08' E 114°17'4 7.9
2017-Nov-12 13:30N 22°08' E 114°21'3 6.4
2017-Nov-12 13:00N 22°10' E 114°24'1 2.0
2017-Nov-12 12:30N 22°10' E 114°25'1 2.0
2017-Nov-12 12:00N 22°09' E 114°24'4 7.9
2017-Nov-12 11:30N 22°05' E 114°25'612.2
2017-Nov-12 11:00N 22°01' E 114°30'611.7
2017-Nov-12 10:30N 21°56' E 114°34'70981358.9
2017-Nov-12 05:17N 28°22' W 015°56'3 6.3
2017-Nov-12 04:48N 28°21' W 015°53'2 6.3
2017-Nov-12 04:28N 28°21' W 015°50'3 6.4
2017-Nov-12 03:57N 28°20' W 015°47'3 6.7
2017-Nov-12 03:27N 28°19' W 015°43'3 6.5
2017-Nov-12 02:56N 28°19' W 015°39'3 6.3
2017-Nov-12 02:26N 28°19' W 015°35'3 6.0
2017-Nov-12 01:56N 28°19' W 015°32'3 5.9
2017-Nov-12 01:25N 28°18' W 015°29'3 5.9
2017-Nov-12 00:56N 28°18' W 015°25'3 5.8
2017-Nov-12 00:25N 28°17' W 015°22'3 6.1
2017-Nov-11 23:54N 28°16' W 015°19'3 6.1
2017-Nov-11 23:28N 28°16' W 015°16'3 6.1
2017-Nov-11 22:57N 28°15' W 015°12'3 6.0
2017-Nov-11 22:27N 28°14' W 015°09'3 6.0
2017-Nov-11 21:56N 28°13' W 015°06'3 6.2
2017-Nov-11 21:25N 28°12' W 015°03'3 6.3
2017-Nov-11 20:55N 28°10' W 014°59'3 6.4
2017-Nov-11 20:30N 28°09' W 014°56'3 6.2
2017-Nov-11 20:00N 28°08' W 014°53'3 6.0
2017-Nov-11 19:30N 28°08' W 014°50'3 6.0
2017-Nov-11 19:00N 28°07' W 014°47'3 5.8
2017-Nov-11 18:30N 28°06' W 014°43'3 5.7
2017-Nov-11 18:00N 28°05' W 014°40'3 5.6
2017-Nov-11 17:27N 28°04' W 014°37'3 6.0
2017-Nov-11 17:00N 28°03' W 014°34'3 6.2
2017-Nov-11 16:30N 28°02' W 014°31'3 5.9
2017-Nov-11 16:00N 28°02' W 014°27'3 5.5
2017-Nov-11 15:30N 28°02' W 014°24'3 5.5
2017-Nov-11 14:57N 28°02' W 014°21'  
Track history (hours):
 
Tides and Currents Weather Stations Pressure Air Temp Water Temp Dewpoint Dewpoint Depression Visibility Wind Speed Wind Dir Waves Ship Positions

Neva

Last reported at 2017-Nov-20 00:31 UTC. Time now 2017-Nov-21 15:45 UTC.
Position N 35°03' E 139°43'.

Length 172 m; draft 7.4 m.

Type: Cargo ship. MMSI: 235012099.

Date/timePositionNaut miles runAvg speedWind from/ knotsBaromVisibWave heightAir tempDewpointWater temp
2017-Nov-20 00:31N 35°03' E 139°43'612.5
2017-Nov-20 00:01N 35°01' E 139°36'0 0.4
2017-Nov-19 23:31N 35°01' E 139°36'1 1.2
2017-Nov-19 23:00N 35°01' E 139°36'3 6.0
2017-Nov-19 22:31N 35°02' E 139°40'2 3.9
2017-Nov-19 22:01N 35°01' E 139°38'713.6
2017-Nov-19 21:30N 34°57' E 139°31'815.7
2017-Nov-19 21:00N 34°52' E 139°23'915.8
2017-Nov-19 20:25N 34°46' E 139°15'217 7.1
2017-Nov-18 13:58N 33°59' E 134°58'817.6
2017-Nov-18 13:30N 34°07' E 134°57'714.0
2017-Nov-18 13:00N 34°14' E 134°58'815.9
2017-Nov-18 12:30N 34°22' E 135°00'918.4
2017-Nov-18 12:00N 34°28' E 135°08'917.8
2017-Nov-18 11:31N 34°35' E 135°15'5 9.7
2017-Nov-18 11:00N 34°40' E 135°14'0 0.4
2017-Nov-18 10:30N 34°40' E 135°14'0 0.0
2017-Nov-18 10:00N 34°40' E 135°14'0 0.0
2017-Nov-18 09:24N 34°40' E 135°14'0 0.0
2017-Nov-18 08:54N 34°40' E 135°14'0 0.0
2017-Nov-18 08:30N 34°40' E 135°14'0 0.0
2017-Nov-18 07:54N 34°40' E 135°14'0 0.0
2017-Nov-18 07:30N 34°40' E 135°14'0 0.0
2017-Nov-18 07:00N 34°40' E 135°14'0 0.0
2017-Nov-18 06:30N 34°40' E 135°14'0 0.0
2017-Nov-18 06:00N 34°40' E 135°14'0 0.0
2017-Nov-18 05:30N 34°40' E 135°14'0 0.0
2017-Nov-18 05:00N 34°40' E 135°14'0 0.1
2017-Nov-18 04:30N 34°40' E 135°14'1 2.9
2017-Nov-18 04:00N 34°39' E 135°16'510.7
2017-Nov-18 03:30N 34°38' E 135°22'2 3.0
2017-Nov-18 02:58N 34°39' E 135°24'0 0.0
2017-Nov-18 02:28N 34°39' E 135°24'0 0.0
2017-Nov-18 01:58N 34°39' E 135°24'0 0.0
2017-Nov-18 01:28N 34°39' E 135°24'0 0.0
2017-Nov-18 00:58N 34°39' E 135°24'0 0.0
2017-Nov-18 00:22N 34°39' E 135°24'0 0.0
2017-Nov-17 23:40N 34°39' E 135°24'0 0.0
2017-Nov-17 23:28N 34°39' E 135°24'0 0.0
2017-Nov-17 22:58N 34°39' E 135°24'0 0.0
2017-Nov-17 22:28N 34°39' E 135°24'0 0.0
2017-Nov-17 21:58N 34°39' E 135°24'0 0.0
2017-Nov-17 21:28N 34°39' E 135°24'0 0.0
2017-Nov-17 20:58N 34°39' E 135°24'0 0.0
2017-Nov-17 20:28N 34°39' E 135°24'0 0.0
2017-Nov-17 19:58N 34°39' E 135°24'0 0.0
2017-Nov-17 19:22N 34°39' E 135°24'0 0.0
2017-Nov-17 18:58N 34°39' E 135°24'0 0.0
2017-Nov-17 18:22N 34°39' E 135°24'0 0.0
2017-Nov-17 17:52N 34°39' E 135°24'0 0.0
2017-Nov-17 17:28N 34°39' E 135°24'0 0.0
2017-Nov-17 16:58N 34°39' E 135°24'0 0.0
2017-Nov-17 16:22N 34°39' E 135°24'0 0.0
2017-Nov-17 15:58N 34°39' E 135°24'0 0.0
2017-Nov-17 15:28N 34°39' E 135°24'0 0.0
2017-Nov-17 14:58N 34°39' E 135°24'0 0.1
2017-Nov-17 14:30N 34°39' E 135°24'1 2.8
2017-Nov-17 14:00N 34°38' E 135°23'612.3
2017-Nov-17 13:31N 34°34' E 135°17'917.0
2017-Nov-17 13:00N 34°28' E 135°10'917.1
2017-Nov-17 12:30N 34°22' E 135°03'816.4
2017-Nov-17 12:00N 34°14' E 134°59'713.2
2017-Nov-17 11:31N 34°07' E 134°59'816.4
2017-Nov-17 11:00N 33°59' E 134°57'915.5
2017-Nov-17 10:24N 33°50' E 134°55'  
2017-Nov-15 00:28N 24°05' E 118°36'817.1
2017-Nov-15 00:00N 24°01' E 118°29'20017.1
2017-Nov-14 12:19N 22°17' E 115°23'617.5
2017-Nov-14 11:57N 22°15' E 115°16'817.3
2017-Nov-14 11:30N 22°12' E 115°08'917.2
2017-Nov-14 11:00N 22°11' E 114°59'817.1
2017-Nov-14 10:30N 22°09' E 114°50'917.1
2017-Nov-14 10:00N 22°08' E 114°41'816.9
2017-Nov-14 09:30N 22°07' E 114°32'917.1
2017-Nov-14 09:00N 22°07' E 114°23'916.5
2017-Nov-14 08:28N 22°08' E 114°13'714.0
2017-Nov-14 07:59N 22°13' E 114°09'611.3
2017-Nov-14 07:28N 22°18' E 114°06'3 0.3
2017-Nov-13 22:00N 22°21' E 114°07'15 0.8
2017-Nov-13 01:57N 22°28' E 113°53'0 0.0
2017-Nov-13 01:27N 22°28' E 113°53'0 0.0
2017-Nov-13 01:00N 22°28' E 113°53'0 0.1
2017-Nov-13 00:30N 22°28' E 113°52'0 0.1
2017-Nov-13 00:00N 22°28' E 113°53'0 0.1
2017-Nov-12 23:30N 22°28' E 113°52'0 0.0
2017-Nov-12 22:56N 22°28' E 113°52'0 0.0
2017-Nov-12 22:26N 22°28' E 113°52'0 0.0
2017-Nov-12 21:59N 22°28' E 113°52'0 0.0
2017-Nov-12 21:29N 22°28' E 113°52'0 0.0
2017-Nov-12 20:56N 22°28' E 113°52'0 0.1
2017-Nov-12 20:29N 22°28' E 113°53'0 0.0
2017-Nov-12 19:56N 22°28' E 113°53'0 0.0
2017-Nov-12 19:29N 22°28' E 113°53'0 0.0
2017-Nov-12 18:59N 22°28' E 113°53'0 0.0
2017-Nov-12 18:20N 22°28' E 113°53'0 0.0
2017-Nov-12 17:56N 22°28' E 113°53'0 0.0
2017-Nov-12 17:29N 22°28' E 113°53'1 3.0
2017-Nov-12 17:00N 22°27' E 113°53'4 8.5
2017-Nov-12 16:30N 22°23' E 113°54'612.6
2017-Nov-12 16:00N 22°21' E 114°01'710.9
2017-Nov-12 15:22N 22°17' E 114°06'512.7
2017-Nov-12 15:00N 22°13' E 114°10'4 7.1
2017-Nov-12 14:30N 22°10' E 114°12'5 8.9
2017-Nov-12 13:59N 22°08' E 114°17'4 7.9
2017-Nov-12 13:30N 22°08' E 114°21'3 6.4
2017-Nov-12 13:00N 22°10' E 114°24'1 2.0
2017-Nov-12 12:30N 22°10' E 114°25'1 2.0
2017-Nov-12 12:00N 22°09' E 114°24'4 7.9
2017-Nov-12 11:30N 22°05' E 114°25'612.2
2017-Nov-12 11:00N 22°01' E 114°30'611.7
2017-Nov-12 10:30N 21°56' E 114°34'70981358.9
2017-Nov-12 05:17N 28°22' W 015°56'3 6.3
2017-Nov-12 04:48N 28°21' W 015°53'2 6.3
2017-Nov-12 04:28N 28°21' W 015°50'3 6.4
2017-Nov-12 03:57N 28°20' W 015°47'3 6.7
2017-Nov-12 03:27N 28°19' W 015°43'3 6.5
2017-Nov-12 02:56N 28°19' W 015°39'3 6.3
2017-Nov-12 02:26N 28°19' W 015°35'3 6.0
2017-Nov-12 01:56N 28°19' W 015°32'3 5.9
2017-Nov-12 01:25N 28°18' W 015°29'3 5.9
2017-Nov-12 00:56N 28°18' W 015°25'3 5.8
2017-Nov-12 00:25N 28°17' W 015°22'3 6.1
2017-Nov-11 23:54N 28°16' W 015°19'3 6.1
2017-Nov-11 23:28N 28°16' W 015°16'3 6.1
2017-Nov-11 22:57N 28°15' W 015°12'3 6.0
2017-Nov-11 22:27N 28°14' W 015°09'3 6.0
2017-Nov-11 21:56N 28°13' W 015°06'3 6.2
2017-Nov-11 21:25N 28°12' W 015°03'3 6.3
2017-Nov-11 20:55N 28°10' W 014°59'3 6.4
2017-Nov-11 20:30N 28°09' W 014°56'3 6.2
2017-Nov-11 20:00N 28°08' W 014°53'3 6.0
2017-Nov-11 19:30N 28°08' W 014°50'3 6.0
2017-Nov-11 19:00N 28°07' W 014°47'3 5.8
2017-Nov-11 18:30N 28°06' W 014°43'3 5.7
2017-Nov-11 18:00N 28°05' W 014°40'3 5.6
2017-Nov-11 17:27N 28°04' W 014°37'3 6.0
2017-Nov-11 17:00N 28°03' W 014°34'3 6.2
2017-Nov-11 16:30N 28°02' W 014°31'3 5.9
2017-Nov-11 16:00N 28°02' W 014°27'3 5.5
2017-Nov-11 15:30N 28°02' W 014°24'3 5.5
2017-Nov-11 14:57N 28°02' W 014°21'  

Dump ship's entire track history